createdAt,value
2023-02-01T00:03:41.869Z,100.00
2023-02-01T00:22:51.363Z,100.00
2023-02-01T00:32:22.501Z,100.00
2023-02-01T00:41:55.706Z,100.00
2023-02-01T00:51:28.918Z,100.00
2023-02-01T01:10:42.418Z,100.00
2023-02-01T01:29:50.163Z,100.00
2023-02-01T01:39:22.217Z,100.00
2023-02-01T01:58:24.581Z,100.00
2023-02-01T02:08:00.437Z,100.00
2023-02-01T02:17:23.024Z,100.00
2023-02-01T02:26:51.468Z,100.00
2023-02-01T02:36:20.892Z,100.00
2023-02-01T02:45:48.936Z,100.00
2023-02-01T02:55:17.042Z,100.00
2023-02-01T03:04:50.329Z,100.00
2023-02-01T03:14:15.667Z,100.00
2023-02-01T03:23:51.713Z,100.00
2023-02-01T03:33:28.820Z,100.00
2023-02-01T03:42:53.212Z,100.00
2023-02-01T03:52:33.690Z,100.00
2023-02-01T04:01:57.170Z,100.00
2023-02-01T04:11:28.024Z,100.00
2023-02-01T04:21:02.047Z,100.00
2023-02-01T04:30:31.181Z,100.00
2023-02-01T04:40:00.676Z,100.00
2023-02-01T04:49:32.476Z,100.00
2023-02-01T04:59:07.972Z,100.00
2023-02-01T05:08:38.911Z,100.00
2023-02-01T05:18:09.413Z,100.00
2023-02-01T05:27:42.507Z,100.00
2023-02-01T05:37:18.272Z,100.00
2023-02-01T05:46:49.844Z,100.00
2023-02-01T05:56:20.567Z,100.00
2023-02-01T06:05:52.619Z,100.00
2023-02-01T06:15:26.247Z,100.00
2023-02-01T06:24:57.780Z,100.00
2023-02-01T06:34:31.301Z,100.00
2023-02-01T06:44:04.616Z,100.00
2023-02-01T06:53:39.547Z,100.00
2023-02-01T07:03:11.152Z,100.00
2023-02-01T07:12:45.104Z,100.00
2023-02-01T07:22:18.884Z,100.00
2023-02-01T07:31:54.151Z,100.00
2023-02-01T07:41:26.334Z,100.00
2023-02-01T07:51:00.227Z,100.00
2023-02-01T08:00:33.427Z,100.00
2023-02-01T08:10:08.647Z,100.00
2023-02-01T08:19:41.250Z,98.24
2023-02-01T08:29:15.660Z,96.82
2023-02-01T08:38:49.892Z,93.46
2023-02-01T08:48:24.289Z,92.72
2023-02-01T08:57:59.860Z,91.65
2023-02-01T09:07:32.059Z,89.80
2023-02-01T09:17:06.120Z,89.49
2023-02-01T09:26:41.556Z,86.67
2023-02-01T09:36:14.201Z,85.13
2023-02-01T09:45:48.416Z,84.02
2023-02-01T09:55:22.146Z,83.10
2023-02-01T10:04:55.752Z,82.13
2023-02-01T10:14:30.006Z,82.08
2023-02-01T10:15:34.069Z,82.30
2023-02-01T10:25:05.462Z,82.71
2023-02-01T10:26:07.894Z,81.93
2023-02-01T10:27:10.321Z,82.27
2023-02-01T10:28:12.735Z,82.67
2023-02-01T10:29:15.233Z,82.44
2023-02-01T10:38:47.383Z,82.71
2023-02-01T10:39:49.837Z,81.84
2023-02-01T10:40:52.246Z,81.56
2023-02-01T10:41:56.285Z,81.15
2023-02-01T10:43:00.208Z,80.71
2023-02-01T10:44:02.555Z,80.02
2023-02-01T10:45:04.928Z,80.55
2023-02-01T10:46:07.344Z,80.63
2023-02-01T10:47:09.695Z,80.60
2023-02-01T10:48:12.095Z,80.55
2023-02-01T10:49:14.555Z,81.55
2023-02-01T10:50:17.025Z,81.69
2023-02-01T10:51:21.077Z,80.77
2023-02-01T10:52:23.450Z,81.18
2023-02-01T10:53:25.897Z,81.03
2023-02-01T10:54:30.106Z,80.34
2023-02-01T10:55:30.834Z,79.80
2023-02-01T10:56:33.160Z,80.45
2023-02-01T10:57:35.617Z,81.06
2023-02-01T10:58:38.032Z,80.84
2023-02-01T10:59:42.061Z,80.51
2023-02-01T11:00:44.359Z,79.72
2023-02-01T11:01:48.398Z,79.29
2023-02-01T11:02:52.399Z,79.41
2023-02-01T11:12:23.628Z,80.05
2023-02-01T11:13:27.546Z,80.38
2023-02-01T11:14:31.352Z,80.75
2023-02-01T11:15:35.369Z,79.79
2023-02-01T11:16:37.650Z,79.96
2023-02-01T11:17:40.062Z,79.42
2023-02-01T11:18:42.452Z,79.53
2023-02-01T11:19:46.531Z,79.32
2023-02-01T11:20:48.839Z,78.57
2023-02-01T11:21:52.842Z,78.82
2023-02-01T11:22:55.169Z,79.07
2023-02-01T11:23:59.236Z,79.19
2023-02-01T11:33:31.288Z,80.19
2023-02-01T11:34:33.629Z,80.61
2023-02-01T11:35:37.647Z,80.02
2023-02-01T11:36:39.973Z,79.70
2023-02-01T11:37:42.494Z,79.41
2023-02-01T11:38:44.817Z,80.36
2023-02-01T11:39:48.898Z,80.29
2023-02-01T11:40:51.292Z,80.38
2023-02-01T11:41:53.702Z,80.00
2023-02-01T11:42:56.183Z,79.92
2023-02-01T11:43:58.560Z,79.98
2023-02-01T11:45:00.966Z,80.45
2023-02-01T11:46:05.173Z,80.53
2023-02-01T11:47:09.069Z,80.67
2023-02-01T11:48:14.968Z,80.68
2023-02-01T11:49:13.996Z,80.56
2023-02-01T11:50:16.450Z,80.54
2023-02-01T11:51:18.885Z,80.52
2023-02-01T11:52:21.249Z,80.10
2023-02-01T11:53:23.730Z,80.26
2023-02-01T11:54:26.125Z,79.95
2023-02-01T11:55:28.563Z,80.37
2023-02-01T11:56:31.012Z,79.84
2023-02-01T11:57:33.458Z,80.25
2023-02-01T11:58:35.909Z,79.62
2023-02-01T11:59:40.965Z,79.29
2023-02-01T12:00:40.747Z,79.91
2023-02-01T12:01:43.060Z,79.52
2023-02-01T12:02:47.334Z,79.51
2023-02-01T12:03:49.529Z,80.10
2023-02-01T12:04:53.537Z,80.57
2023-02-01T12:05:57.495Z,80.43
2023-02-01T12:06:59.811Z,80.53
2023-02-01T12:08:03.855Z,79.67
2023-02-01T12:09:06.259Z,79.99
2023-02-01T12:10:08.663Z,79.45
2023-02-01T12:11:12.716Z,80.13
2023-02-01T12:12:15.025Z,78.76
2023-02-01T12:13:17.465Z,78.48
2023-02-01T12:14:21.505Z,78.93
2023-02-01T12:15:24.039Z,79.35
2023-02-01T12:16:26.393Z,79.55
2023-02-01T12:17:28.762Z,79.16
2023-02-01T12:18:31.175Z,78.92
2023-02-01T12:19:35.144Z,79.28
2023-02-01T12:20:37.547Z,79.25
2023-02-01T12:21:39.954Z,79.29
2023-02-01T12:22:42.352Z,79.66
2023-02-01T12:23:44.746Z,79.23
2023-02-01T12:24:47.187Z,79.50
2023-02-01T12:25:49.676Z,77.71
2023-02-01T12:26:53.851Z,77.72
2023-02-01T12:27:56.011Z,77.18
2023-02-01T12:28:58.512Z,76.51
2023-02-01T12:30:01.197Z,76.36
2023-02-01T12:31:03.542Z,76.60
2023-02-01T12:32:06.006Z,76.46
2023-02-01T12:33:08.346Z,76.64
2023-02-01T12:34:10.809Z,77.28
2023-02-01T12:35:14.792Z,77.79
2023-02-01T12:36:17.060Z,77.57
2023-02-01T12:37:19.488Z,76.94
2023-02-01T12:38:23.505Z,77.17
2023-02-01T12:39:25.836Z,77.25
2023-02-01T12:40:28.287Z,76.41
2023-02-01T12:41:30.620Z,76.65
2023-02-01T12:42:33.019Z,77.55
2023-02-01T12:43:35.487Z,76.99
2023-02-01T12:44:37.937Z,76.39
2023-02-01T12:45:40.377Z,76.51
2023-02-01T12:46:42.713Z,76.96
2023-02-01T12:47:45.143Z,77.09
2023-02-01T12:48:47.536Z,76.20
2023-02-01T12:49:49.942Z,75.96
2023-02-01T12:50:52.376Z,75.50
2023-02-01T12:51:54.827Z,75.20
2023-02-01T12:52:58.838Z,75.82
2023-02-01T12:54:01.204Z,75.76
2023-02-01T12:55:03.692Z,74.62
2023-02-01T12:56:06.109Z,74.81
2023-02-01T12:57:08.492Z,74.90
2023-02-01T12:58:10.974Z,75.08
2023-02-01T12:59:13.397Z,75.77
2023-02-01T13:00:15.847Z,75.41
2023-02-01T13:01:19.833Z,74.52
2023-02-01T13:02:22.169Z,74.40
2023-02-01T13:03:24.488Z,75.25
2023-02-01T13:04:28.509Z,75.25
2023-02-01T13:05:30.834Z,75.25
2023-02-01T13:06:33.212Z,74.94
2023-02-01T13:07:37.319Z,76.04
2023-02-01T13:08:39.624Z,76.04
2023-02-01T13:09:41.983Z,76.18
2023-02-01T13:10:44.379Z,75.94
2023-02-01T13:11:48.424Z,75.30
2023-02-01T13:12:50.765Z,75.77
2023-02-01T13:13:54.775Z,76.10
2023-02-01T13:14:57.074Z,75.45
2023-02-01T13:15:59.480Z,74.81
2023-02-01T13:17:02.029Z,75.77
2023-02-01T13:18:04.292Z,75.76
2023-02-01T13:19:06.736Z,75.92
2023-02-01T13:20:10.746Z,75.09
2023-02-01T13:21:13.058Z,75.29
2023-02-01T13:22:15.530Z,75.32
2023-02-01T13:23:18.877Z,76.45
2023-02-01T13:24:20.385Z,75.96
2023-02-01T13:25:23.120Z,76.24
2023-02-01T13:26:25.225Z,76.62
2023-02-01T13:27:27.598Z,75.96
2023-02-01T13:28:31.664Z,75.59
2023-02-01T13:29:34.022Z,75.39
2023-02-01T13:30:38.095Z,76.19
2023-02-01T13:31:40.574Z,76.40
2023-02-01T13:32:53.024Z,75.28
2023-02-01T13:33:51.919Z,75.36
2023-02-01T13:34:47.602Z,74.84
2023-02-01T13:35:49.983Z,74.89
2023-02-01T13:36:52.346Z,75.14
2023-02-01T13:37:54.741Z,74.82
2023-02-01T13:38:57.159Z,75.58
2023-02-01T13:39:59.573Z,75.17
2023-02-01T13:41:01.989Z,74.82
2023-02-01T13:42:04.382Z,75.16
2023-02-01T13:43:06.829Z,75.65
2023-02-01T13:44:09.343Z,75.49
2023-02-01T13:45:13.317Z,76.00
2023-02-01T13:46:17.305Z,75.77
2023-02-01T13:47:19.621Z,75.32
2023-02-01T13:48:22.037Z,75.17
2023-02-01T13:49:24.511Z,75.31
2023-02-01T13:50:26.983Z,75.00
2023-02-01T13:51:29.398Z,75.14
2023-02-01T13:52:31.741Z,74.88
2023-02-01T13:53:34.174Z,74.56
2023-02-01T13:54:38.264Z,74.11
2023-02-01T13:55:40.523Z,74.06
2023-02-01T13:56:42.901Z,74.52
2023-02-01T13:57:45.350Z,74.17
2023-02-01T13:58:47.841Z,74.42
2023-02-01T13:59:50.270Z,74.42
2023-02-01T14:00:52.741Z,75.04
2023-02-01T14:01:55.106Z,74.43
2023-02-01T14:02:59.091Z,74.92
2023-02-01T14:04:01.438Z,74.74
2023-02-01T14:05:03.897Z,73.97
2023-02-01T14:06:07.915Z,73.52
2023-02-01T14:07:10.232Z,73.40
2023-02-01T14:08:12.664Z,73.85
2023-02-01T14:09:15.420Z,73.38
2023-02-01T14:10:17.614Z,72.70
2023-02-01T14:11:19.954Z,73.02
2023-02-01T14:12:24.067Z,73.06
2023-02-01T14:13:27.855Z,73.15
2023-02-01T14:14:31.802Z,72.46
2023-02-01T14:15:35.699Z,71.62
2023-02-01T14:16:39.511Z,71.54
2023-02-01T14:17:41.923Z,72.46
2023-02-01T14:18:44.234Z,72.09
2023-02-01T14:19:47.661Z,71.48
2023-02-01T14:20:51.541Z,71.73
2023-02-01T14:21:53.927Z,72.03
2023-02-01T14:22:56.260Z,71.89
2023-02-01T14:23:58.740Z,71.79
2023-02-01T14:25:01.179Z,72.29
2023-02-01T14:26:04.604Z,71.16
2023-02-01T14:27:06.922Z,72.01
2023-02-01T14:28:11.161Z,72.62
2023-02-01T14:29:20.213Z,72.97
2023-02-01T14:30:15.876Z,72.66
2023-02-01T14:31:18.509Z,72.94
2023-02-01T14:32:20.681Z,72.60
2023-02-01T14:33:24.651Z,72.23
2023-02-01T14:34:27.001Z,71.66
2023-02-01T14:35:31.185Z,72.69
2023-02-01T14:36:35.064Z,72.98
2023-02-01T14:37:37.370Z,72.64
2023-02-01T14:38:39.834Z,73.20
2023-02-01T14:39:42.235Z,73.99
2023-02-01T14:40:46.246Z,73.99
2023-02-01T14:41:48.544Z,73.08
2023-02-01T14:42:52.533Z,73.16
2023-02-01T14:43:56.420Z,73.48
2023-02-01T14:45:00.400Z,73.74
2023-02-01T14:46:02.695Z,73.34
2023-02-01T14:47:05.008Z,73.38
2023-02-01T14:48:07.425Z,73.54
2023-02-01T14:49:09.807Z,73.60
2023-02-01T14:50:13.853Z,73.68
2023-02-01T14:51:16.126Z,72.87
2023-02-01T14:52:18.625Z,73.42
2023-02-01T14:53:21.000Z,73.49
2023-02-01T15:02:53.186Z,74.77
2023-02-01T15:03:55.644Z,74.43
2023-02-01T15:04:58.053Z,74.34
2023-02-01T15:06:00.537Z,74.37
2023-02-01T15:07:02.908Z,73.98
2023-02-01T15:08:05.344Z,74.20
2023-02-01T15:09:07.723Z,73.09
2023-02-01T15:10:10.170Z,73.12
2023-02-01T15:11:12.608Z,73.23
2023-02-01T15:12:14.973Z,72.90
2023-02-01T15:13:17.423Z,73.50
2023-02-01T15:14:21.523Z,73.43
2023-02-01T15:15:25.915Z,72.99
2023-02-01T15:16:27.596Z,72.39
2023-02-01T15:17:29.995Z,72.49
2023-02-01T15:18:32.394Z,72.57
2023-02-01T15:19:36.502Z,72.70
2023-02-01T15:20:38.807Z,73.10
2023-02-01T15:21:41.197Z,72.83
2023-02-01T15:22:45.235Z,72.78
2023-02-01T15:23:49.104Z,72.50
2023-02-01T15:24:52.336Z,72.85
2023-02-01T15:25:56.305Z,73.38
2023-02-01T15:26:58.474Z,73.59
2023-02-01T15:28:00.853Z,73.30
2023-02-01T15:29:03.367Z,72.76
2023-02-01T15:30:05.728Z,72.44
2023-02-01T15:31:09.845Z,72.45
2023-02-01T15:32:12.109Z,72.53
2023-02-01T15:33:14.466Z,72.64
2023-02-01T15:34:16.896Z,72.75
2023-02-01T15:35:19.292Z,73.17
2023-02-01T15:36:21.702Z,73.28
2023-02-01T15:45:53.601Z,74.90
2023-02-01T15:46:55.923Z,74.71
2023-02-01T15:47:59.963Z,75.01
2023-02-01T15:49:02.213Z,74.72
2023-02-01T15:50:04.671Z,74.91
2023-02-01T15:59:36.758Z,75.72
2023-02-01T16:09:10.596Z,75.82
2023-02-01T16:10:14.669Z,75.96
2023-02-01T16:19:46.031Z,75.32
2023-02-01T16:20:48.464Z,75.68
2023-02-01T16:21:50.908Z,75.25
2023-02-01T16:31:24.082Z,75.25
2023-02-01T16:40:58.839Z,75.66
2023-02-01T16:50:31.765Z,76.22
2023-02-01T16:51:34.184Z,76.69
2023-02-01T17:01:07.526Z,76.94
2023-02-01T17:10:40.005Z,77.00
2023-02-01T17:20:13.306Z,77.36
2023-02-01T17:29:46.354Z,78.18
2023-02-01T17:39:15.688Z,79.62
2023-02-01T17:48:49.896Z,80.22
2023-02-01T17:58:21.393Z,80.24
2023-02-01T18:07:53.408Z,79.81
2023-02-01T18:17:24.627Z,80.22
2023-02-01T18:26:59.192Z,80.92
2023-02-01T18:36:29.151Z,81.21
2023-02-01T18:46:01.752Z,81.48
2023-02-01T18:55:35.056Z,81.68
2023-02-01T19:05:07.075Z,81.24
2023-02-01T19:14:39.621Z,81.20
2023-02-01T19:24:12.848Z,81.97
2023-02-01T19:33:41.165Z,81.49
2023-02-01T19:43:13.984Z,81.31
2023-02-01T19:52:46.480Z,81.81
2023-02-01T20:02:17.367Z,81.73
2023-02-01T20:11:49.452Z,81.76
2023-02-01T20:21:20.270Z,82.39
2023-02-01T20:30:54.256Z,82.78
2023-02-01T20:40:26.075Z,82.62
2023-02-01T20:49:55.706Z,82.83
2023-02-01T20:59:26.031Z,83.01
2023-02-01T21:09:00.326Z,83.26
2023-02-01T21:18:33.594Z,83.86
2023-02-01T21:28:03.327Z,84.04
2023-02-01T21:37:40.390Z,83.57
2023-02-01T21:47:08.735Z,82.78
2023-02-01T21:56:42.599Z,83.20
2023-02-01T22:06:14.297Z,83.99
2023-02-01T22:15:47.488Z,84.86
2023-02-01T22:25:21.370Z,85.93
2023-02-01T22:34:56.260Z,86.85
2023-02-01T22:44:28.062Z,87.51
2023-02-01T22:54:01.588Z,87.87
2023-02-01T23:03:37.259Z,88.40
2023-02-01T23:13:09.132Z,91.47
2023-02-01T23:22:43.201Z,92.76
2023-02-01T23:32:16.796Z,92.82
2023-02-01T23:33:20.778Z,92.40
2023-02-01T23:42:52.215Z,91.98
2023-02-01T23:52:26.168Z,91.74
